Details From KHAF - Half Moon Bay
To KAST - Astoria Rgnl
Flight Number -
Tags Generated
Created
Modified
Stats Distance 523 nm / 968 km
Max Altitude 0 ft / 0 m
Waypoints 4
Social Downloads 1
Likes 0
Share VATSIM

Download

Looking for another format? Having issues loading an existing format? Contact us
Advertisement - Login to hide

Notes

Generated

Route

KHAF BAYTS MAVRY KAST

ID Type Via Altitude Latitude Longitude Leg Dist Tot Dist Heading (true) Name
O KHAF APT - 0 ft / 0 m 37.51846˚ -122.50705˚ - 0 nm - -
BAYTS FIX - 0 ft / 0 m 42.07337˚ -123.11132˚ 274 nm 274 nm 354° / 354° -
MAVRY FIX - 0 ft / 0 m 46.16139˚ -123.88514˚ 247 nm 522 nm 353° / 352° -
O KAST APT - 0 ft / 0 m 46.16285˚ -123.88346˚ 0 nm 522 nm 38° / 38° Astoria Rgnl

Altitude Profile

Advertisement - Login to hide

Weather


0- 5 10 15 20 25 30 35+ Temperature / ° C

Clouds and Precipitation
Forecast for 2018-05-26 12:00 UTC. Updated an hour ago

Ground ~20,000 ft ~40,000 ft Winds

KHAF

Details ICAO KHAF
Name HALF MOON BAY
Region United States
Timezone America/Los_Angeles (UTC-7.0)
Stats Elevation 66 ft / 20 m (AMSL)
Location 37.513435° -122.501163°
Runways 1
Magnetic Variation 13.417° E

METAR

KHAF 261215Z AUTO 32012G18KT 7SM OVC013 12/10 A3009 RMK AO2

Decode

TAF

Not found

Departure Runways

ID Width Length Bearing (true) Bearing (mag) Surface Threshold Offset Overrun Length
12 151 ft / 46 m 5,005 ft / 1,525 m 137.06° 123.64° Asphalt 764 ft / 233 m 0 ft / 0 m
30 151 ft / 46 m 5,005 ft / 1,525 m 317.06° 303.64° Asphalt 764 ft / 233 m 0 ft / 0 m

KAST

Details ICAO KAST (AST)
Name Astoria Rgnl
Region United States
Timezone America/Los_Angeles (UTC-7.0)
Stats Elevation 15 ft / 5 m (AMSL)
Location 46.157894° -123.878724°
Runways 2
Magnetic Variation 15.576° E

METAR

KAST 261155Z AUTO 23003KT 10SM BKN037 12/08 A3014 RMK AO2 SLP206 T01170083 10122 20100 51009

Decode

TAF

TAF KAST 261132Z 2612/2712 27007KT P6SM SCT025 OVC030 TEMPO 2614/2617 -DZ SCT015 BKN025 FM262100 30010G18KT P6SM SCT015 BKN300 FM270400 28004KT P6SM SCT300

Decode

Destination Runways

ID Width Length Bearing (true) Bearing (mag) Surface Threshold Offset Overrun Length
08 98 ft / 30 m 5,779 ft / 1,762 m 95.49° 79.91° Asphalt 302 ft / 92 m 0 ft / 0 m
13 98 ft / 30 m 4,997 ft / 1,523 m 153.70° 138.12° Asphalt 328 ft / 100 m 0 ft / 0 m
26 98 ft / 30 m 5,779 ft / 1,762 m 275.51° 259.93° Asphalt 705 ft / 215 m 0 ft / 0 m
31 98 ft / 30 m 4,997 ft / 1,523 m 333.70° 318.12° Asphalt 203 ft / 62 m 0 ft / 0 m

Approach Navaids

Runway Type Ident Frequency Range Bearing (true) Bearing (mag) Slope Elevation
26 Localiser IAST 109.50 MHz 18 nm / 33 km 275.50° 259.92° - 15 ft / 5 m (AMSL)
26 Glidescope IAST 109.50 MHz 10 nm / 19 km 275.50° 259.92° 3.00° 15 ft / 5 m (AMSL)